createdAt,value
2023-09-01T00:02:20.542Z,100796.28
2023-09-01T00:04:47.593Z,100797.78
2023-09-01T00:07:14.538Z,100794.34
2023-09-01T00:09:41.525Z,100792.69
2023-09-01T00:12:08.560Z,100803.03
2023-09-01T00:14:35.575Z,100799.31
2023-09-01T00:17:02.513Z,100802.28
2023-09-01T00:19:30.082Z,100795.69
2023-09-01T00:21:57.034Z,100790.63
2023-09-01T00:24:23.998Z,100793.38
2023-09-01T00:26:50.996Z,100797.63
2023-09-01T00:29:17.877Z,100788.13
2023-09-01T00:31:44.825Z,100793.00
2023-09-01T00:34:11.765Z,100791.03
2023-09-01T00:36:38.722Z,100789.53
2023-09-01T00:39:05.910Z,100787.75
2023-09-01T00:41:32.866Z,100787.88
2023-09-01T00:43:59.804Z,100778.50
2023-09-01T00:46:27.217Z,100779.09
2023-09-01T00:48:57.755Z,100787.63
2023-09-01T00:51:26.127Z,100795.13
2023-09-01T00:53:53.141Z,100789.72
2023-09-01T00:56:20.355Z,100783.00
2023-09-01T00:58:47.279Z,100787.38
2023-09-01T01:01:14.271Z,100791.13
2023-09-01T01:03:41.382Z,100785.66
2023-09-01T01:06:17.071Z,100792.41
2023-09-01T01:09:00.985Z,100798.31
2023-09-01T01:12:07.178Z,100782.59
2023-09-01T01:14:40.536Z,100785.50
2023-09-01T01:17:07.698Z,100788.09
2023-09-01T01:19:48.922Z,100787.81
2023-09-01T01:22:15.950Z,100781.31
2023-09-01T01:24:42.960Z,100791.13
2023-09-01T01:27:10.260Z,100788.81
2023-09-01T01:29:37.246Z,100786.63
2023-09-01T01:32:04.357Z,100783.84
2023-09-01T01:34:38.625Z,100777.63
2023-09-01T01:37:13.039Z,100792.53
2023-09-01T01:39:40.021Z,100793.63
2023-09-01T01:42:08.884Z,100792.25
2023-09-01T01:44:36.754Z,100794.72
2023-09-01T01:47:04.235Z,100799.66
2023-09-01T01:49:31.983Z,100791.66
2023-09-01T01:51:59.647Z,100796.47
2023-09-01T01:54:26.531Z,100795.19
2023-09-01T01:56:53.805Z,100793.56
2023-09-01T01:59:20.690Z,100800.44
2023-09-01T02:01:47.745Z,100796.03
2023-09-01T02:04:15.064Z,100799.25
2023-09-01T02:06:42.125Z,100795.94
2023-09-01T02:09:11.276Z,100792.41
2023-09-01T02:11:38.309Z,100795.97
2023-09-01T02:14:09.200Z,100798.75
2023-09-01T02:16:36.141Z,100787.19
2023-09-01T02:19:03.110Z,100796.84
2023-09-01T02:21:30.084Z,100797.97
2023-09-01T02:23:57.039Z,100796.69
2023-09-01T02:26:24.481Z,100799.56
2023-09-01T02:28:51.531Z,100809.31
2023-09-01T02:31:18.743Z,100806.59
2023-09-01T02:33:45.808Z,100802.00
2023-09-01T02:36:30.592Z,100816.75
2023-09-01T02:38:57.845Z,100813.06
2023-09-01T02:41:25.226Z,100821.59
2023-09-01T02:43:52.721Z,100822.06
2023-09-01T02:46:19.715Z,100829.75
2023-09-01T02:48:46.778Z,100824.78
2023-09-01T02:51:13.749Z,100813.19
2023-09-01T02:53:40.706Z,100817.28
2023-09-01T02:56:08.822Z,100812.34
2023-09-01T02:58:36.358Z,100809.50
2023-09-01T03:01:09.613Z,100821.53
2023-09-01T03:03:37.583Z,100829.69
2023-09-01T03:06:06.992Z,100829.69
2023-09-01T03:08:34.038Z,100836.84
2023-09-01T03:11:01.103Z,100835.88
2023-09-01T03:13:28.255Z,100832.47
2023-09-01T03:15:58.327Z,100824.97
2023-09-01T03:18:25.345Z,100826.44
2023-09-01T03:20:54.516Z,100822.78
2023-09-01T03:23:22.488Z,100809.25
2023-09-01T03:25:56.680Z,100805.66
2023-09-01T03:28:23.981Z,100810.63
2023-09-01T03:30:50.993Z,100796.81
2023-09-01T03:33:17.972Z,100795.84
2023-09-01T03:35:45.185Z,100795.84
2023-09-01T03:38:12.672Z,100799.84
2023-09-01T03:40:39.878Z,100800.44
2023-09-01T03:43:08.549Z,100802.22
2023-09-01T03:45:35.645Z,100795.84
2023-09-01T03:48:02.809Z,100803.56
2023-09-01T03:50:29.814Z,100804.09
2023-09-01T03:52:56.914Z,100794.97
2023-09-01T03:55:23.844Z,100805.00
2023-09-01T03:57:51.015Z,100815.38
2023-09-01T04:00:19.062Z,100815.59
2023-09-01T04:02:46.526Z,100821.97
2023-09-01T04:05:14.024Z,100801.78
2023-09-01T04:07:41.080Z,100811.47
2023-09-01T04:10:08.837Z,100815.72
2023-09-01T04:12:35.774Z,100805.94
2023-09-01T04:15:02.846Z,100799.84
2023-09-01T04:17:29.816Z,100797.06
2023-09-01T04:19:56.856Z,100813.34
2023-09-01T04:22:24.375Z,100806.59
2023-09-01T04:24:52.846Z,100809.59
2023-09-01T04:27:19.897Z,100813.41
2023-09-01T04:29:59.332Z,100816.41
2023-09-01T04:32:31.062Z,100806.75
2023-09-01T04:34:58.048Z,100803.75
2023-09-01T04:37:24.972Z,100805.97
2023-09-01T04:39:51.889Z,100806.78
2023-09-01T04:42:18.880Z,100808.56
2023-09-01T04:44:45.817Z,100815.88
2023-09-01T04:47:12.756Z,100817.59
2023-09-01T04:49:39.703Z,100811.00
2023-09-01T04:52:06.750Z,100809.13
2023-09-01T04:54:33.740Z,100810.50
2023-09-01T04:57:03.305Z,100809.72
2023-09-01T04:59:31.196Z,100808.09
2023-09-01T05:02:00.777Z,100807.44
2023-09-01T05:04:28.007Z,100803.97
2023-09-01T05:06:55.054Z,100797.88
2023-09-01T05:09:22.103Z,100793.53
2023-09-01T05:11:49.026Z,100789.66
2023-09-01T05:14:16.045Z,100782.94
2023-09-01T05:16:42.960Z,100784.97
2023-09-01T05:19:09.944Z,100780.97
2023-09-01T05:21:36.864Z,100771.53
2023-09-01T05:24:04.046Z,100779.59
2023-09-01T05:26:33.707Z,100776.16
2023-09-01T05:29:00.614Z,100771.19
2023-09-01T05:31:27.664Z,100756.75
2023-09-01T05:33:54.620Z,100761.09
2023-09-01T05:36:21.568Z,100773.03
2023-09-01T05:38:48.446Z,100775.22
2023-09-01T05:41:15.750Z,100786.13
2023-09-01T05:43:42.746Z,100780.44
2023-09-01T05:46:09.702Z,100783.66
2023-09-01T05:48:37.953Z,100784.78
2023-09-01T05:51:05.526Z,100780.28
2023-09-01T05:53:33.570Z,100777.88
2023-09-01T05:56:00.489Z,100776.03
2023-09-01T05:58:27.488Z,100777.06
2023-09-01T06:00:54.454Z,100770.41
2023-09-01T06:03:21.461Z,100773.72
2023-09-01T06:05:48.515Z,100775.53
2023-09-01T06:08:15.713Z,100778.09
2023-09-01T06:10:42.842Z,100788.84
2023-09-01T06:13:09.787Z,100776.84
2023-09-01T06:15:36.751Z,100782.25
2023-09-01T06:18:04.097Z,100780.31
2023-09-01T06:20:31.143Z,100782.78
2023-09-01T06:22:58.145Z,100776.00
2023-09-01T06:25:25.721Z,100772.81
2023-09-01T06:27:52.827Z,100781.19
2023-09-01T06:30:19.839Z,100772.97
2023-09-01T06:32:49.478Z,100772.09
2023-09-01T06:35:17.598Z,100771.66
2023-09-01T06:37:44.604Z,100778.25
2023-09-01T06:40:11.787Z,100785.69
2023-09-01T06:42:38.845Z,100788.72
2023-09-01T06:45:07.038Z,100799.69
2023-09-01T06:47:34.002Z,100797.34
2023-09-01T06:50:00.956Z,100800.75
2023-09-01T06:52:27.883Z,100790.69
2023-09-01T06:54:54.755Z,100786.25
2023-09-01T06:57:21.734Z,100789.00
2023-09-01T06:59:48.699Z,100778.56
2023-09-01T07:02:15.666Z,100781.91
2023-09-01T07:04:42.608Z,100776.41
2023-09-01T07:07:09.591Z,100775.09
2023-09-01T07:09:36.490Z,100778.38
2023-09-01T07:12:04.642Z,100786.44
2023-09-01T07:14:31.639Z,100786.13
2023-09-01T07:16:58.583Z,100788.19
2023-09-01T07:19:25.649Z,100786.94
2023-09-01T07:21:52.629Z,100779.09
2023-09-01T07:24:19.560Z,100789.34
2023-09-01T07:26:46.494Z,100777.13
2023-09-01T07:29:13.676Z,100769.91
2023-09-01T07:31:40.749Z,100784.97
2023-09-01T07:34:07.819Z,100773.81
2023-09-01T07:36:34.750Z,100783.22
2023-09-01T07:39:01.686Z,100786.81
2023-09-01T07:41:28.623Z,100781.69
2023-09-01T07:43:55.669Z,100790.72
2023-09-01T07:46:22.573Z,100783.56
2023-09-01T07:48:49.611Z,100782.16
2023-09-01T07:51:16.628Z,100792.94
2023-09-01T07:53:43.546Z,100791.34
2023-09-01T07:56:11.824Z,100798.53
2023-09-01T07:58:38.763Z,100797.47
2023-09-01T08:01:05.853Z,100792.91
2023-09-01T08:03:33.645Z,100801.53
2023-09-01T08:06:00.939Z,100798.09
2023-09-01T08:08:27.860Z,100806.38
2023-09-01T08:10:55.516Z,100804.16
2023-09-01T08:13:23.503Z,100795.72
2023-09-01T08:15:50.933Z,100817.56
2023-09-01T08:18:18.425Z,100814.09
2023-09-01T08:20:45.646Z,100816.16
2023-09-01T08:23:12.638Z,100820.66
2023-09-01T08:25:39.556Z,100818.53
2023-09-01T08:28:07.290Z,100830.94
2023-09-01T08:30:34.677Z,100825.88
2023-09-01T08:33:03.518Z,100827.91
2023-09-01T08:35:30.663Z,100827.72
2023-09-01T08:37:57.606Z,100830.84
2023-09-01T08:40:24.667Z,100825.84
2023-09-01T08:42:51.704Z,100832.63
2023-09-01T08:45:20.603Z,100835.34
2023-09-01T08:47:49.040Z,100828.84
2023-09-01T08:50:17.091Z,100834.75
2023-09-01T08:52:46.103Z,100848.69
2023-09-01T08:55:19.331Z,100841.13
2023-09-01T08:57:49.538Z,100839.84
2023-09-01T09:00:16.852Z,100837.09
2023-09-01T09:02:56.972Z,100833.53
2023-09-01T09:05:31.424Z,100838.91
2023-09-01T09:07:59.609Z,100832.34
2023-09-01T09:10:43.938Z,100837.75
2023-09-01T09:13:39.909Z,100826.78
2023-09-01T09:16:08.769Z,100825.25
2023-09-01T09:18:36.237Z,100826.97
2023-09-01T09:21:03.889Z,100833.25
2023-09-01T09:23:47.350Z,100835.59
2023-09-01T09:26:14.268Z,100837.44
2023-09-01T09:28:41.326Z,100853.75
2023-09-01T09:31:08.334Z,100842.16
2023-09-01T09:33:35.639Z,100853.63
2023-09-01T09:36:04.960Z,100862.31
2023-09-01T09:38:51.100Z,100867.72
2023-09-01T09:41:18.062Z,100867.19
2023-09-01T09:43:49.100Z,100866.81
2023-09-01T09:46:16.471Z,100865.38
2023-09-01T09:48:43.822Z,100868.34
2023-09-01T09:51:11.667Z,100870.03
2023-09-01T09:53:41.944Z,100875.16
2023-09-01T09:56:33.764Z,100871.25
2023-09-01T09:59:05.039Z,100876.72
2023-09-01T10:01:37.935Z,100881.16
2023-09-01T10:04:06.190Z,100879.19
2023-09-01T10:06:35.252Z,100879.00
2023-09-01T10:09:05.546Z,100881.31
2023-09-01T10:11:32.687Z,100879.47
2023-09-01T10:13:59.651Z,100879.28
2023-09-01T10:16:26.644Z,100878.63
2023-09-01T10:18:54.291Z,100888.50
2023-09-01T10:21:21.644Z,100887.69
2023-09-01T10:23:49.148Z,100880.63
2023-09-01T10:26:31.968Z,100884.91
2023-09-01T10:29:05.730Z,100890.69
2023-09-01T10:31:34.831Z,100877.50
2023-09-01T10:34:09.827Z,100886.44
2023-09-01T10:36:37.849Z,100883.59
2023-09-01T10:39:22.526Z,100896.50
2023-09-01T10:42:09.215Z,100898.47
2023-09-01T10:44:43.962Z,100901.09
2023-09-01T10:47:33.452Z,100898.44
2023-09-01T10:50:04.587Z,100902.22
2023-09-01T10:52:33.028Z,100898.78
2023-09-01T10:55:07.281Z,100897.75
2023-09-01T10:57:41.192Z,100895.38
2023-09-01T11:00:30.699Z,100893.69
2023-09-01T11:03:25.440Z,100895.91
2023-09-01T11:06:02.741Z,100892.25
2023-09-01T11:08:30.047Z,100891.91
2023-09-01T11:11:01.711Z,100878.91
2023-09-01T11:13:29.015Z,100877.03
2023-09-01T11:15:55.959Z,100873.09
2023-09-01T11:18:24.084Z,100867.66
2023-09-01T11:20:54.427Z,100882.78
2023-09-01T11:23:25.032Z,100878.69
2023-09-01T11:25:58.510Z,100866.94
2023-09-01T11:28:26.931Z,100872.31
2023-09-01T11:30:57.939Z,100870.22
2023-09-01T11:33:26.159Z,100866.28
2023-09-01T11:36:08.611Z,100865.59
2023-09-01T11:38:38.611Z,100875.03
2023-09-01T11:41:10.284Z,100845.19
2023-09-01T11:43:37.356Z,100837.19
2023-09-01T11:46:05.291Z,100839.00
2023-09-01T11:48:32.476Z,100835.13
2023-09-01T11:50:59.779Z,100820.34
2023-09-01T11:53:27.513Z,100821.97
2023-09-01T11:55:59.761Z,100822.31
2023-09-01T11:58:33.627Z,100826.94
2023-09-01T12:01:15.375Z,100834.00
2023-09-01T12:03:48.883Z,100828.88
2023-09-01T12:06:21.516Z,100842.13
2023-09-01T12:08:48.965Z,100834.53
2023-09-01T12:11:16.616Z,100834.34
2023-09-01T12:13:46.731Z,100825.50
2023-09-01T12:16:24.245Z,100825.38
2023-09-01T12:18:52.315Z,100828.22
2023-09-01T12:21:19.285Z,100825.06
2023-09-01T12:23:47.224Z,100839.00
2023-09-01T12:26:15.108Z,100825.00
2023-09-01T12:28:42.971Z,100838.09
2023-09-01T12:31:10.655Z,100847.41
2023-09-01T12:33:38.018Z,100839.47
2023-09-01T12:36:05.488Z,100826.59
2023-09-01T12:38:32.625Z,100820.38
2023-09-01T13:14:53.209Z,100867.78
2023-09-01T13:17:20.104Z,100869.72
2023-09-01T13:19:47.084Z,100871.75
2023-09-01T13:22:14.017Z,100878.09
2023-09-01T13:24:40.907Z,100882.09
2023-09-01T13:27:07.834Z,100889.56
2023-09-01T13:29:34.755Z,100893.31
2023-09-01T13:32:01.709Z,100888.06
2023-09-01T13:34:28.653Z,100893.16
2023-09-01T13:36:55.677Z,100896.81
2023-09-01T13:39:22.686Z,100891.56
2023-09-01T13:41:49.691Z,100898.81
2023-09-01T13:44:17.227Z,100898.44
2023-09-01T13:46:44.152Z,100898.47
2023-09-01T13:49:11.512Z,100890.84
2023-09-01T13:51:38.467Z,100883.63
2023-09-01T13:54:05.485Z,100885.00
2023-09-01T13:56:32.589Z,100893.31
2023-09-01T13:58:59.546Z,100896.88
2023-09-01T14:01:26.532Z,100904.28
2023-09-01T14:03:53.592Z,100904.38
2023-09-01T14:06:20.542Z,100910.03
2023-09-01T14:08:47.463Z,100904.22
2023-09-01T14:11:14.461Z,100910.94
2023-09-01T14:13:41.382Z,100897.47
2023-09-01T14:16:10.340Z,100904.16
2023-09-01T14:18:38.933Z,100906.59
2023-09-01T14:21:05.812Z,100905.31
2023-09-01T14:23:32.783Z,100897.97
2023-09-01T14:25:59.668Z,100913.34
2023-09-01T14:28:26.726Z,100910.94
2023-09-01T14:30:53.666Z,100915.03
2023-09-01T14:33:27.572Z,100923.28
2023-09-01T14:36:01.013Z,100918.50
2023-09-01T14:38:27.974Z,100923.69
2023-09-01T14:40:54.924Z,100922.22
2023-09-01T14:43:21.909Z,100919.13
2023-09-01T14:45:48.915Z,100933.25
2023-09-01T14:48:15.875Z,100937.16
2023-09-01T14:50:42.839Z,100941.63
2023-09-01T14:53:09.736Z,100945.34
2023-09-01T14:55:38.208Z,100938.09
2023-09-01T14:58:05.202Z,100938.47
2023-09-01T15:00:32.190Z,100940.41
2023-09-01T15:02:59.139Z,100918.13
2023-09-01T15:05:26.150Z,100950.75
2023-09-01T15:07:53.037Z,100946.09
2023-09-01T15:10:20.105Z,100938.38
2023-09-01T15:12:47.063Z,100937.59
2023-09-01T15:15:13.980Z,100941.28
2023-09-01T15:17:40.941Z,100936.91
2023-09-01T15:20:08.467Z,100931.16
2023-09-01T15:22:35.418Z,100931.69
2023-09-01T15:25:02.454Z,100933.41
2023-09-01T15:27:29.409Z,100924.97
2023-09-01T15:29:56.362Z,100933.78
2023-09-01T15:32:23.304Z,100954.16
2023-09-01T15:35:00.080Z,100962.75
2023-09-01T15:37:35.418Z,100953.03
2023-09-01T15:40:04.032Z,100961.09
2023-09-01T15:42:31.028Z,100960.19
2023-09-01T15:44:58.030Z,100968.56
2023-09-01T15:47:24.990Z,100971.34
2023-09-01T15:49:52.067Z,100972.03
2023-09-01T15:52:18.985Z,100968.78
2023-09-01T15:54:46.003Z,100972.97
2023-09-01T15:57:13.561Z,100975.84
2023-09-01T15:59:40.543Z,100981.00
2023-09-01T16:02:07.619Z,100975.50
2023-09-01T16:04:34.872Z,100970.91
2023-09-01T16:07:02.018Z,100979.28
2023-09-01T16:09:29.026Z,100977.59
2023-09-01T16:11:56.089Z,100991.13
2023-09-01T16:14:23.021Z,100993.50
2023-09-01T16:16:54.521Z,100994.66
2023-09-01T16:19:22.462Z,100994.22
2023-09-01T16:21:51.658Z,100997.25
2023-09-01T16:24:18.837Z,100999.72
2023-09-01T16:26:45.824Z,101001.53
2023-09-01T16:29:12.745Z,100995.22
2023-09-01T16:31:40.154Z,100998.63
2023-09-01T16:34:10.022Z,100996.13
2023-09-01T16:36:37.108Z,100990.03
2023-09-01T16:39:06.452Z,100999.34
2023-09-01T16:41:33.422Z,101004.91
2023-09-01T16:44:00.358Z,101006.56
2023-09-01T16:46:28.275Z,100999.16
2023-09-01T16:48:55.279Z,101004.81
2023-09-01T16:51:22.295Z,101003.03
2023-09-01T16:53:49.185Z,101017.63
2023-09-01T16:56:16.286Z,101023.66
2023-09-01T16:58:43.298Z,101016.16
2023-09-01T17:01:10.250Z,101021.91
2023-09-01T17:03:37.206Z,101023.81
2023-09-01T17:06:04.368Z,101015.69
2023-09-01T17:08:31.311Z,101033.56
2023-09-01T17:10:58.579Z,101025.59
2023-09-01T17:13:25.560Z,101031.59
2023-09-01T17:15:52.534Z,101039.25
2023-09-01T17:18:19.748Z,101037.50
2023-09-01T17:20:56.401Z,101040.53
2023-09-01T17:23:25.643Z,101035.81
2023-09-01T17:25:52.695Z,101045.13
2023-09-01T17:28:19.686Z,101045.88
2023-09-01T17:30:46.694Z,101054.03
2023-09-01T17:33:13.718Z,101050.31
2023-09-01T17:35:40.797Z,101054.97
2023-09-01T17:38:07.904Z,101059.63
2023-09-01T17:40:37.662Z,101069.56
2023-09-01T17:43:05.231Z,101058.56
2023-09-01T17:45:32.170Z,101075.19
2023-09-01T17:47:59.216Z,101084.78
2023-09-01T17:50:26.362Z,101078.84
2023-09-01T17:52:53.230Z,101086.97
2023-09-01T17:55:20.725Z,101085.47
2023-09-01T17:57:50.474Z,101095.53
2023-09-01T18:00:17.831Z,101093.22
2023-09-01T18:05:35.498Z,101099.63
2023-09-01T18:08:09.450Z,101105.22
2023-09-01T18:10:40.132Z,101104.09
2023-09-01T18:13:07.220Z,101114.13
2023-09-01T18:15:34.162Z,101120.72
2023-09-01T18:18:01.216Z,101120.22
2023-09-01T18:20:31.095Z,101115.28
2023-09-01T18:22:59.096Z,101125.81
2023-09-01T18:25:26.042Z,101126.13
2023-09-01T18:27:53.053Z,101122.19
2023-09-01T18:30:20.048Z,101120.19
2023-09-01T18:32:49.019Z,101114.09
2023-09-01T18:35:15.977Z,101118.88
2023-09-01T18:37:45.376Z,101112.44
2023-09-01T18:40:32.481Z,101121.63
2023-09-01T18:42:59.451Z,101123.31
2023-09-01T18:45:31.254Z,101124.28
2023-09-01T18:47:58.269Z,101121.50
2023-09-01T18:50:25.280Z,101115.41
2023-09-01T18:52:56.560Z,101110.13
2023-09-01T18:55:24.047Z,101119.00
2023-09-01T18:57:51.021Z,101116.53
2023-09-01T19:00:28.332Z,101118.84
2023-09-01T19:02:55.391Z,101130.53
2023-09-01T19:05:33.782Z,101120.47
2023-09-01T19:08:31.252Z,101125.25
2023-09-01T19:10:58.172Z,101127.41
2023-09-01T19:13:28.435Z,101137.31
2023-09-01T19:15:57.330Z,101133.84
2023-09-01T19:18:42.843Z,101137.63
2023-09-01T19:21:13.002Z,101140.09
2023-09-01T19:23:41.274Z,101139.59
2023-09-01T19:26:20.808Z,101148.66
2023-09-01T19:28:47.739Z,101140.38
2023-09-01T19:31:15.269Z,101137.44
2023-09-01T19:33:57.340Z,101144.84
2023-09-01T19:36:27.517Z,101142.59
2023-09-01T19:38:54.690Z,101144.41
2023-09-01T19:41:23.987Z,101137.44
2023-09-01T19:43:53.525Z,101138.63
2023-09-01T19:46:20.552Z,101146.38
2023-09-01T19:48:47.534Z,101140.75
2023-09-01T19:51:14.534Z,101144.53
2023-09-01T19:53:42.818Z,101142.72
2023-09-01T19:56:13.047Z,101153.09
2023-09-01T19:58:49.582Z,101146.78
2023-09-01T20:01:23.516Z,101143.28
2023-09-01T20:03:50.685Z,101139.34
2023-09-01T20:06:19.549Z,101132.25
2023-09-01T20:08:46.547Z,101139.72
2023-09-01T20:11:17.680Z,101146.84
2023-09-01T20:13:44.855Z,101147.03
2023-09-01T20:16:14.374Z,101150.63
2023-09-01T20:18:41.316Z,101150.31
2023-09-01T20:21:08.476Z,101158.22
2023-09-01T20:23:35.423Z,101155.25
2023-09-01T20:26:02.505Z,101152.44
2023-09-01T20:28:29.418Z,101145.03
2023-09-01T20:30:56.356Z,101156.88
2023-09-01T20:33:23.277Z,101160.28
2023-09-01T20:35:50.217Z,101164.03
2023-09-01T20:38:17.851Z,101164.56
2023-09-01T20:40:44.858Z,101168.72
2023-09-01T20:43:11.844Z,101163.84
2023-09-01T20:45:41.995Z,101166.81
2023-09-01T20:48:09.478Z,101169.97
2023-09-01T20:50:36.401Z,101168.94
2023-09-01T20:53:04.103Z,101176.63
2023-09-01T20:55:31.249Z,101174.81
2023-09-01T20:57:58.202Z,101174.09
2023-09-01T21:00:26.847Z,101177.72
2023-09-01T21:02:54.110Z,101164.69
2023-09-01T21:05:21.513Z,101180.19
2023-09-01T21:07:49.839Z,101170.13
2023-09-01T21:10:18.492Z,101177.53
2023-09-01T21:12:45.652Z,101171.59
2023-09-01T21:15:12.664Z,101178.31
2023-09-01T21:17:39.633Z,101179.31
2023-09-01T21:20:07.418Z,101181.88
2023-09-01T21:22:34.300Z,101185.00
2023-09-01T21:25:01.259Z,101178.09
2023-09-01T21:27:28.178Z,101188.25
2023-09-01T21:29:56.554Z,101180.13
2023-09-01T21:32:23.569Z,101185.56
2023-09-01T21:34:52.424Z,101189.72
2023-09-01T21:37:21.536Z,101180.13
2023-09-01T21:39:49.191Z,101197.75
2023-09-01T21:42:16.206Z,101193.16
2023-09-01T21:44:43.319Z,101184.88
2023-09-01T21:47:10.456Z,101192.19
2023-09-01T21:49:37.423Z,101184.28
2023-09-01T21:52:04.754Z,101193.16
2023-09-01T21:54:31.642Z,101190.63
2023-09-01T21:56:58.635Z,101193.28
2023-09-01T21:59:25.545Z,101195.25
2023-09-01T22:01:52.540Z,101203.25
2023-09-01T22:04:19.513Z,101199.72
2023-09-01T22:06:46.564Z,101199.47
2023-09-01T22:09:13.463Z,101207.53
2023-09-01T22:11:40.416Z,101201.88
2023-09-01T22:14:08.115Z,101216.78
2023-09-01T22:16:34.991Z,101218.72
2023-09-01T22:19:02.659Z,101214.22
2023-09-01T22:21:29.995Z,101225.56
2023-09-01T22:23:57.276Z,101228.78
2023-09-01T22:26:24.291Z,101228.56
2023-09-01T22:28:51.478Z,101217.81
2023-09-01T22:31:18.490Z,101226.00
2023-09-01T22:33:45.553Z,101234.19
2023-09-01T22:36:13.254Z,101228.53
2023-09-01T22:38:40.143Z,101238.00
2023-09-01T22:41:07.140Z,101235.25
2023-09-01T22:43:34.099Z,101242.50
2023-09-01T22:46:01.028Z,101243.31
2023-09-01T22:48:28.031Z,101247.19
2023-09-01T22:50:54.943Z,101242.78
2023-09-01T22:53:21.903Z,101229.16
2023-09-01T22:55:49.404Z,101245.88
2023-09-01T22:58:16.378Z,101244.66
2023-09-01T23:00:43.382Z,101243.84
2023-09-01T23:03:10.440Z,101239.13
2023-09-01T23:05:37.394Z,101245.31
2023-09-01T23:08:04.686Z,101243.13
2023-09-01T23:10:31.677Z,101241.44
2023-09-01T23:12:58.599Z,101247.94
2023-09-01T23:15:27.006Z,101248.34
2023-09-01T23:17:54.724Z,101254.28
2023-09-01T23:20:24.467Z,101250.28
2023-09-01T23:22:51.427Z,101249.75
2023-09-01T23:25:19.911Z,101252.00
2023-09-01T23:27:46.938Z,101254.63
2023-09-01T23:30:15.225Z,101253.25
2023-09-01T23:32:42.294Z,101254.91
2023-09-01T23:35:09.716Z,101254.25
2023-09-01T23:37:40.405Z,101257.41
2023-09-01T23:40:11.523Z,101251.75
2023-09-01T23:42:38.840Z,101255.06
2023-09-01T23:45:06.904Z,101253.00
2023-09-01T23:47:38.630Z,101259.75
2023-09-01T23:50:07.301Z,101263.09
2023-09-01T23:52:34.241Z,101270.97
2023-09-01T23:55:01.235Z,101273.03
2023-09-01T23:57:28.130Z,101263.22
2023-09-01T23:59:55.039Z,101269.97
